sensor_id;sensor_type;location;lat;lon;timestamp;temperature;humidity
20091;DHT22;10205;49.678;6.560;2024-02-23T00:00:07;11.60;74.90
20091;DHT22;10205;49.678;6.560;2024-02-23T00:02:36;11.60;74.80
20091;DHT22;10205;49.678;6.560;2024-02-23T00:05:04;11.60;74.70
20091;DHT22;10205;49.678;6.560;2024-02-23T00:07:31;11.60;74.40
20091;DHT22;10205;49.678;6.560;2024-02-23T00:10:00;11.60;74.20
20091;DHT22;10205;49.678;6.560;2024-02-23T00:12:28;11.50;74.00
20091;DHT22;10205;49.678;6.560;2024-02-23T00:14:55;11.50;74.00
20091;DHT22;10205;49.678;6.560;2024-02-23T00:17:22;11.50;74.60
20091;DHT22;10205;49.678;6.560;2024-02-23T00:19:49;11.50;74.50
20091;DHT22;10205;49.678;6.560;2024-02-23T00:22:18;11.40;74.00
20091;DHT22;10205;49.678;6.560;2024-02-23T00:24:45;11.40;74.30
20091;DHT22;10205;49.678;6.560;2024-02-23T00:27:13;11.40;74.90
20091;DHT22;10205;49.678;6.560;2024-02-23T00:29:41;11.40;75.30
20091;DHT22;10205;49.678;6.560;2024-02-23T00:32:08;11.40;75.30
20091;DHT22;10205;49.678;6.560;2024-02-23T00:34:35;11.40;75.30
20091;DHT22;10205;49.678;6.560;2024-02-23T00:37:02;11.40;75.20
20091;DHT22;10205;49.678;6.560;2024-02-23T00:39:31;11.40;75.30
20091;DHT22;10205;49.678;6.560;2024-02-23T00:41:58;11.40;75.30
20091;DHT22;10205;49.678;6.560;2024-02-23T00:44:26;11.30;75.10
20091;DHT22;10205;49.678;6.560;2024-02-23T00:46:53;11.30;75.20
20091;DHT22;10205;49.678;6.560;2024-02-23T00:49:20;11.30;75.20
20091;DHT22;10205;49.678;6.560;2024-02-23T00:51:47;11.30;75.20
20091;DHT22;10205;49.678;6.560;2024-02-23T00:54:14;11.20;74.70
20091;DHT22;10205;49.678;6.560;2024-02-23T00:56:41;11.20;74.70
20091;DHT22;10205;49.678;6.560;2024-02-23T00:59:08;11.20;75.00
20091;DHT22;10205;49.678;6.560;2024-02-23T01:01:37;11.20;75.30
20091;DHT22;10205;49.678;6.560;2024-02-23T01:04:04;11.10;75.90
20091;DHT22;10205;49.678;6.560;2024-02-23T01:06:31;11.10;74.60
20091;DHT22;10205;49.678;6.560;2024-02-23T01:08:58;11.10;74.40
20091;DHT22;10205;49.678;6.560;2024-02-23T01:11:25;11.10;74.20
20091;DHT22;10205;49.678;6.560;2024-02-23T01:13:52;11.00;74.10
20091;DHT22;10205;49.678;6.560;2024-02-23T01:16:19;11.00;74.00
20091;DHT22;10205;49.678;6.560;2024-02-23T01:18:47;11.00;74.20
20091;DHT22;10205;49.678;6.560;2024-02-23T01:21:15;10.90;74.50
20091;DHT22;10205;49.678;6.560;2024-02-23T01:23:42;10.90;75.00
20091;DHT22;10205;49.678;6.560;2024-02-23T01:26:08;10.90;75.10
20091;DHT22;10205;49.678;6.560;2024-02-23T01:28:36;10.90;75.40
20091;DHT22;10205;49.678;6.560;2024-02-23T01:31:03;10.90;75.50
20091;DHT22;10205;49.678;6.560;2024-02-23T01:33:33;10.90;75.40
20091;DHT22;10205;49.678;6.560;2024-02-23T01:36:03;10.80;75.20
20091;DHT22;10205;49.678;6.560;2024-02-23T01:38:31;10.80;75.30
20091;DHT22;10205;49.678;6.560;2024-02-23T01:40:58;10.80;75.40
20091;DHT22;10205;49.678;6.560;2024-02-23T01:43:25;10.80;75.20
20091;DHT22;10205;49.678;6.560;2024-02-23T01:45:52;10.80;75.40
20091;DHT22;10205;49.678;6.560;2024-02-23T01:48:20;10.80;75.50
20091;DHT22;10205;49.678;6.560;2024-02-23T01:50:48;10.80;75.50
20091;DHT22;10205;49.678;6.560;2024-02-23T01:53:18;10.80;75.60
20091;DHT22;10205;49.678;6.560;2024-02-23T01:55:46;10.70;75.00
20091;DHT22;10205;49.678;6.560;2024-02-23T01:58:15;10.70;75.00
20091;DHT22;10205;49.678;6.560;2024-02-23T02:00:42;10.70;75.00
20091;DHT22;10205;49.678;6.560;2024-02-23T02:03:09;10.60;75.20
20091;DHT22;10205;49.678;6.560;2024-02-23T02:05:36;10.60;75.60
20091;DHT22;10205;49.678;6.560;2024-02-23T02:08:04;10.60;75.60
20091;DHT22;10205;49.678;6.560;2024-02-23T02:10:33;10.60;75.60
20091;DHT22;10205;49.678;6.560;2024-02-23T02:13:03;10.60;75.20
20091;DHT22;10205;49.678;6.560;2024-02-23T02:15:31;10.50;75.00
20091;DHT22;10205;49.678;6.560;2024-02-23T02:17:58;10.50;75.20
20091;DHT22;10205;49.678;6.560;2024-02-23T02:20:25;10.50;75.30
20091;DHT22;10205;49.678;6.560;2024-02-23T02:22:54;10.40;75.70
20091;DHT22;10205;49.678;6.560;2024-02-23T02:25:21;10.40;75.50
20091;DHT22;10205;49.678;6.560;2024-02-23T02:27:50;10.40;75.70
20091;DHT22;10205;49.678;6.560;2024-02-23T02:30:17;10.40;75.80
20091;DHT22;10205;49.678;6.560;2024-02-23T02:32:45;10.30;75.90
20091;DHT22;10205;49.678;6.560;2024-02-23T02:35:12;10.30;75.90
20091;DHT22;10205;49.678;6.560;2024-02-23T02:37:39;10.30;75.70
20091;DHT22;10205;49.678;6.560;2024-02-23T02:40:07;10.30;75.70
20091;DHT22;10205;49.678;6.560;2024-02-23T02:42:35;10.30;75.50
20091;DHT22;10205;49.678;6.560;2024-02-23T02:45:04;10.20;75.40
20091;DHT22;10205;49.678;6.560;2024-02-23T02:47:31;10.20;75.60
20091;DHT22;10205;49.678;6.560;2024-02-23T02:49:58;10.20;75.60
20091;DHT22;10205;49.678;6.560;2024-02-23T02:52:25;10.20;75.70
20091;DHT22;10205;49.678;6.560;2024-02-23T02:54:54;10.10;75.50
20091;DHT22;10205;49.678;6.560;2024-02-23T02:57:21;10.10;75.70
20091;DHT22;10205;49.678;6.560;2024-02-23T02:59:48;10.10;75.60
20091;DHT22;10205;49.678;6.560;2024-02-23T03:02:17;10.10;75.40
20091;DHT22;10205;49.678;6.560;2024-02-23T03:04:47;10.10;75.50
20091;DHT22;10205;49.678;6.560;2024-02-23T03:07:14;10.00;75.80
20091;DHT22;10205;49.678;6.560;2024-02-23T03:09:41;10.00;75.70
20091;DHT22;10205;49.678;6.560;2024-02-23T03:12:08;10.00;75.70
20091;DHT22;10205;49.678;6.560;2024-02-23T03:14:36;10.00;75.80
20091;DHT22;10205;49.678;6.560;2024-02-23T03:17:04;10.00;75.80
20091;DHT22;10205;49.678;6.560;2024-02-23T03:19:33;10.00;75.80
20091;DHT22;10205;49.678;6.560;2024-02-23T03:22:00;10.00;75.50
20091;DHT22;10205;49.678;6.560;2024-02-23T03:24:27;10.00;76.30
20091;DHT22;10205;49.678;6.560;2024-02-23T03:26:54;9.90;75.70
20091;DHT22;10205;49.678;6.560;2024-02-23T03:29:22;9.90;75.90
20091;DHT22;10205;49.678;6.560;2024-02-23T03:31:49;9.90;75.80
20091;DHT22;10205;49.678;6.560;2024-02-23T03:34:17;9.90;75.70
20091;DHT22;10205;49.678;6.560;2024-02-23T03:36:45;9.90;75.70
20091;DHT22;10205;49.678;6.560;2024-02-23T03:39:12;9.90;75.50
20091;DHT22;10205;49.678;6.560;2024-02-23T03:41:40;9.90;75.80
20091;DHT22;10205;49.678;6.560;2024-02-23T03:44:07;9.90;75.80
20091;DHT22;10205;49.678;6.560;2024-02-23T03:46:35;9.90;75.70
20091;DHT22;10205;49.678;6.560;2024-02-23T03:49:02;9.90;75.50
20091;DHT22;10205;49.678;6.560;2024-02-23T03:51:29;9.90;75.70
20091;DHT22;10205;49.678;6.560;2024-02-23T03:53:59;9.80;75.50
20091;DHT22;10205;49.678;6.560;2024-02-23T03:56:26;9.80;75.20
20091;DHT22;10205;49.678;6.560;2024-02-23T03:58:53;9.80;75.30
20091;DHT22;10205;49.678;6.560;2024-02-23T04:01:20;9.80;75.40
20091;DHT22;10205;49.678;6.560;2024-02-23T04:03:47;9.80;75.60
20091;DHT22;10205;49.678;6.560;2024-02-23T04:06:17;9.80;75.70
20091;DHT22;10205;49.678;6.560;2024-02-23T04:08:44;9.80;75.70
20091;DHT22;10205;49.678;6.560;2024-02-23T04:11:14;9.80;75.70
20091;DHT22;10205;49.678;6.560;2024-02-23T04:13:41;9.80;75.80
20091;DHT22;10205;49.678;6.560;2024-02-23T04:16:08;9.80;75.70
20091;DHT22;10205;49.678;6.560;2024-02-23T04:18:35;9.70;75.40
20091;DHT22;10205;49.678;6.560;2024-02-23T04:21:02;9.70;75.60
20091;DHT22;10205;49.678;6.560;2024-02-23T04:23:30;9.70;75.80
20091;DHT22;10205;49.678;6.560;2024-02-23T04:25:58;9.70;75.90
20091;DHT22;10205;49.678;6.560;2024-02-23T04:28:27;9.70;76.00
20091;DHT22;10205;49.678;6.560;2024-02-23T04:30:56;9.80;75.80
20091;DHT22;10205;49.678;6.560;2024-02-23T04:33:23;9.70;75.70
20091;DHT22;10205;49.678;6.560;2024-02-23T04:35:50;9.70;75.70
20091;DHT22;10205;49.678;6.560;2024-02-23T04:38:17;9.70;75.70
20091;DHT22;10205;49.678;6.560;2024-02-23T04:40:44;9.70;75.80
20091;DHT22;10205;49.678;6.560;2024-02-23T04:43:11;9.70;75.80
20091;DHT22;10205;49.678;6.560;2024-02-23T04:45:40;9.60;75.60
20091;DHT22;10205;49.678;6.560;2024-02-23T04:48:07;9.60;75.90
20091;DHT22;10205;49.678;6.560;2024-02-23T04:50:34;9.60;75.70
20091;DHT22;10205;49.678;6.560;2024-02-23T04:53:01;9.60;75.50
20091;DHT22;10205;49.678;6.560;2024-02-23T04:55:29;9.60;75.50
20091;DHT22;10205;49.678;6.560;2024-02-23T04:57:56;9.60;75.80
20091;DHT22;10205;49.678;6.560;2024-02-23T05:00:23;9.50;75.60
20091;DHT22;10205;49.678;6.560;2024-02-23T05:02:55;9.50;76.50
20091;DHT22;10205;49.678;6.560;2024-02-23T05:05:22;9.50;75.70
20091;DHT22;10205;49.678;6.560;2024-02-23T05:07:52;9.50;75.50
20091;DHT22;10205;49.678;6.560;2024-02-23T05:10:19;9.50;75.70
20091;DHT22;10205;49.678;6.560;2024-02-23T05:12:48;9.50;76.00
20091;DHT22;10205;49.678;6.560;2024-02-23T05:15:15;9.50;76.00
20091;DHT22;10205;49.678;6.560;2024-02-23T05:17:42;9.50;76.00
20091;DHT22;10205;49.678;6.560;2024-02-23T05:20:12;9.50;76.20
20091;DHT22;10205;49.678;6.560;2024-02-23T05:22:40;9.50;76.40
20091;DHT22;10205;49.678;6.560;2024-02-23T05:25:07;9.50;76.30
20091;DHT22;10205;49.678;6.560;2024-02-23T05:27:35;9.50;76.20
20091;DHT22;10205;49.678;6.560;2024-02-23T05:30:02;9.50;76.10
20091;DHT22;10205;49.678;6.560;2024-02-23T05:32:30;9.50;76.00
20091;DHT22;10205;49.678;6.560;2024-02-23T05:34:57;9.50;76.20
20091;DHT22;10205;49.678;6.560;2024-02-23T05:37:26;9.50;76.20
20091;DHT22;10205;49.678;6.560;2024-02-23T05:39:53;9.50;76.10
20091;DHT22;10205;49.678;6.560;2024-02-23T05:42:20;9.50;76.10
20091;DHT22;10205;49.678;6.560;2024-02-23T05:44:47;9.50;76.20
20091;DHT22;10205;49.678;6.560;2024-02-23T05:47:15;9.50;76.10
20091;DHT22;10205;49.678;6.560;2024-02-23T05:49:42;9.40;76.10
20091;DHT22;10205;49.678;6.560;2024-02-23T05:52:09;9.40;76.10
20091;DHT22;10205;49.678;6.560;2024-02-23T05:54:37;9.40;76.00
20091;DHT22;10205;49.678;6.560;2024-02-23T05:57:04;9.40;76.10
20091;DHT22;10205;49.678;6.560;2024-02-23T05:59:31;9.40;76.10
20091;DHT22;10205;49.678;6.560;2024-02-23T06:01:58;9.40;76.00
20091;DHT22;10205;49.678;6.560;2024-02-23T06:04:25;9.40;76.00
20091;DHT22;10205;49.678;6.560;2024-02-23T06:06:53;9.40;76.20
20091;DHT22;10205;49.678;6.560;2024-02-23T06:09:21;9.30;76.20
20091;DHT22;10205;49.678;6.560;2024-02-23T06:11:49;9.30;76.10
20091;DHT22;10205;49.678;6.560;2024-02-23T06:14:17;9.30;76.00
20091;DHT22;10205;49.678;6.560;2024-02-23T06:16:44;9.30;75.80
20091;DHT22;10205;49.678;6.560;2024-02-23T06:19:11;9.30;75.70
20091;DHT22;10205;49.678;6.560;2024-02-23T06:21:38;9.30;76.00
20091;DHT22;10205;49.678;6.560;2024-02-23T06:24:05;9.30;76.20
20091;DHT22;10205;49.678;6.560;2024-02-23T06:26:34;9.30;76.30
20091;DHT22;10205;49.678;6.560;2024-02-23T06:29:02;9.30;76.30
20091;DHT22;10205;49.678;6.560;2024-02-23T06:31:31;9.30;76.20
20091;DHT22;10205;49.678;6.560;2024-02-23T06:33:59;9.30;76.10
20091;DHT22;10205;49.678;6.560;2024-02-23T06:36:26;9.30;75.90
20091;DHT22;10205;49.678;6.560;2024-02-23T06:38:53;9.30;76.00
20091;DHT22;10205;49.678;6.560;2024-02-23T06:41:20;9.30;75.90
20091;DHT22;10205;49.678;6.560;2024-02-23T06:43:48;9.30;76.10
20091;DHT22;10205;49.678;6.560;2024-02-23T06:46:18;9.30;76.30
20091;DHT22;10205;49.678;6.560;2024-02-23T06:48:46;9.30;76.10
20091;DHT22;10205;49.678;6.560;2024-02-23T06:51:13;9.30;76.00
20091;DHT22;10205;49.678;6.560;2024-02-23T06:53:41;9.30;76.20
20091;DHT22;10205;49.678;6.560;2024-02-23T06:56:08;9.30;76.30
20091;DHT22;10205;49.678;6.560;2024-02-23T06:58:35;9.30;76.30
20091;DHT22;10205;49.678;6.560;2024-02-23T07:01:03;9.30;76.20
20091;DHT22;10205;49.678;6.560;2024-02-23T07:03:32;9.30;76.10
20091;DHT22;10205;49.678;6.560;2024-02-23T07:06:00;9.30;76.30
20091;DHT22;10205;49.678;6.560;2024-02-23T07:08:28;9.30;76.10
20091;DHT22;10205;49.678;6.560;2024-02-23T07:10:56;9.30;76.00
20091;DHT22;10205;49.678;6.560;2024-02-23T07:13:23;9.30;75.70
20091;DHT22;10205;49.678;6.560;2024-02-23T07:15:50;9.30;75.70
20091;DHT22;10205;49.678;6.560;2024-02-23T07:18:17;9.20;75.50
20091;DHT22;10205;49.678;6.560;2024-02-23T07:20:45;9.20;75.70
20091;DHT22;10205;49.678;6.560;2024-02-23T07:23:12;9.20;75.70
20091;DHT22;10205;49.678;6.560;2024-02-23T07:25:41;9.20;75.50
20091;DHT22;10205;49.678;6.560;2024-02-23T07:28:08;9.20;75.60
20091;DHT22;10205;49.678;6.560;2024-02-23T07:30:35;9.20;75.70
20091;DHT22;10205;49.678;6.560;2024-02-23T07:33:03;9.20;75.50
20091;DHT22;10205;49.678;6.560;2024-02-23T07:35:30;9.20;75.50
20091;DHT22;10205;49.678;6.560;2024-02-23T07:37:58;9.20;75.60
20091;DHT22;10205;49.678;6.560;2024-02-23T07:40:26;9.20;75.40
20091;DHT22;10205;49.678;6.560;2024-02-23T07:42:53;9.20;75.40
20091;DHT22;10205;49.678;6.560;2024-02-23T07:45:20;9.20;75.50
20091;DHT22;10205;49.678;6.560;2024-02-23T07:47:47;9.20;75.50
20091;DHT22;10205;49.678;6.560;2024-02-23T07:50:14;9.20;75.60
20091;DHT22;10205;49.678;6.560;2024-02-23T07:52:41;9.20;75.50
20091;DHT22;10205;49.678;6.560;2024-02-23T07:55:10;9.20;75.50
20091;DHT22;10205;49.678;6.560;2024-02-23T07:57:37;9.20;75.70
20091;DHT22;10205;49.678;6.560;2024-02-23T08:00:06;9.20;75.80
20091;DHT22;10205;49.678;6.560;2024-02-23T08:02:35;9.20;75.70
20091;DHT22;10205;49.678;6.560;2024-02-23T08:05:02;9.20;75.50
20091;DHT22;10205;49.678;6.560;2024-02-23T08:07:29;9.20;75.70
20091;DHT22;10205;49.678;6.560;2024-02-23T08:09:56;9.20;75.80
20091;DHT22;10205;49.678;6.560;2024-02-23T08:12:25;9.20;75.70
20091;DHT22;10205;49.678;6.560;2024-02-23T08:14:53;9.20;75.80
20091;DHT22;10205;49.678;6.560;2024-02-23T08:17:21;9.20;75.90
20091;DHT22;10205;49.678;6.560;2024-02-23T08:19:48;9.20;75.90
20091;DHT22;10205;49.678;6.560;2024-02-23T08:22:15;9.20;76.70
20091;DHT22;10205;49.678;6.560;2024-02-23T08:24:42;9.20;75.90
20091;DHT22;10205;49.678;6.560;2024-02-23T08:27:09;9.30;75.80
20091;DHT22;10205;49.678;6.560;2024-02-23T08:29:39;9.30;75.70
20091;DHT22;10205;49.678;6.560;2024-02-23T08:32:07;9.30;75.80
20091;DHT22;10205;49.678;6.560;2024-02-23T08:34:34;9.30;75.70
20091;DHT22;10205;49.678;6.560;2024-02-23T08:37:01;9.30;75.70
20091;DHT22;10205;49.678;6.560;2024-02-23T08:39:28;9.30;75.80
20091;DHT22;10205;49.678;6.560;2024-02-23T08:41:55;9.30;75.90
20091;DHT22;10205;49.678;6.560;2024-02-23T08:44:22;9.30;75.90
20091;DHT22;10205;49.678;6.560;2024-02-23T08:46:51;9.40;75.80
20091;DHT22;10205;49.678;6.560;2024-02-23T08:49:18;9.40;75.60
20091;DHT22;10205;49.678;6.560;2024-02-23T08:51:45;9.40;75.60
20091;DHT22;10205;49.678;6.560;2024-02-23T08:54:12;9.40;75.50
20091;DHT22;10205;49.678;6.560;2024-02-23T08:56:39;9.40;75.50
20091;DHT22;10205;49.678;6.560;2024-02-23T08:59:07;9.50;75.50
20091;DHT22;10205;49.678;6.560;2024-02-23T09:01:35;9.50;75.50
20091;DHT22;10205;49.678;6.560;2024-02-23T09:04:03;9.50;76.30
20091;DHT22;10205;49.678;6.560;2024-02-23T09:06:30;9.50;75.40
20091;DHT22;10205;49.678;6.560;2024-02-23T09:08:58;9.50;75.50
20091;DHT22;10205;49.678;6.560;2024-02-23T09:11:25;9.50;75.60
20091;DHT22;10205;49.678;6.560;2024-02-23T09:13:52;9.50;75.50
20091;DHT22;10205;49.678;6.560;2024-02-23T09:16:19;9.60;75.50
20091;DHT22;10205;49.678;6.560;2024-02-23T09:18:48;9.60;75.50
20091;DHT22;10205;49.678;6.560;2024-02-23T09:21:17;9.60;75.40
20091;DHT22;10205;49.678;6.560;2024-02-23T09:23:44;9.60;75.30
20091;DHT22;10205;49.678;6.560;2024-02-23T09:26:12;9.60;75.50
20091;DHT22;10205;49.678;6.560;2024-02-23T09:28:39;9.60;75.40
20091;DHT22;10205;49.678;6.560;2024-02-23T09:31:07;9.60;75.40
20091;DHT22;10205;49.678;6.560;2024-02-23T09:33:34;9.70;75.50
20091;DHT22;10205;49.678;6.560;2024-02-23T09:36:01;9.70;75.50
20091;DHT22;10205;49.678;6.560;2024-02-23T09:38:30;9.70;75.50
20091;DHT22;10205;49.678;6.560;2024-02-23T09:40:58;9.70;75.50
20091;DHT22;10205;49.678;6.560;2024-02-23T09:43:29;9.70;75.70
20091;DHT22;10205;49.678;6.560;2024-02-23T09:45:57;9.80;75.70
20091;DHT22;10205;49.678;6.560;2024-02-23T09:48:26;9.80;75.50
20091;DHT22;10205;49.678;6.560;2024-02-23T09:50:54;9.80;75.40
20091;DHT22;10205;49.678;6.560;2024-02-23T09:53:23;9.90;75.30
20091;DHT22;10205;49.678;6.560;2024-02-23T09:55:53;9.90;75.30
20091;DHT22;10205;49.678;6.560;2024-02-23T09:58:22;9.90;75.00
20091;DHT22;10205;49.678;6.560;2024-02-23T10:00:50;9.90;75.10
20091;DHT22;10205;49.678;6.560;2024-02-23T10:03:17;10.00;75.00
20091;DHT22;10205;49.678;6.560;2024-02-23T10:05:44;10.00;75.80
20091;DHT22;10205;49.678;6.560;2024-02-23T10:08:11;10.00;75.00
20091;DHT22;10205;49.678;6.560;2024-02-23T10:10:38;10.00;74.90
20091;DHT22;10205;49.678;6.560;2024-02-23T10:13:08;10.10;75.00
20091;DHT22;10205;49.678;6.560;2024-02-23T10:15:35;10.10;75.00
20091;DHT22;10205;49.678;6.560;2024-02-23T10:18:02;10.10;74.90
20091;DHT22;10205;49.678;6.560;2024-02-23T10:20:32;10.10;74.80
20091;DHT22;10205;49.678;6.560;2024-02-23T10:23:00;10.20;74.80
20091;DHT22;10205;49.678;6.560;2024-02-23T10:25:28;10.20;74.70
20091;DHT22;10205;49.678;6.560;2024-02-23T10:27:55;10.20;74.80
20091;DHT22;10205;49.678;6.560;2024-02-23T10:30:23;10.30;74.70
20091;DHT22;10205;49.678;6.560;2024-02-23T10:32:55;10.30;74.60
20091;DHT22;10205;49.678;6.560;2024-02-23T10:35:24;10.30;74.40
20091;DHT22;10205;49.678;6.560;2024-02-23T10:37:53;10.30;74.50
20091;DHT22;10205;49.678;6.560;2024-02-23T10:40:21;10.30;74.40
20091;DHT22;10205;49.678;6.560;2024-02-23T10:42:50;10.30;74.40
20091;DHT22;10205;49.678;6.560;2024-02-23T10:45:21;10.40;74.40
20091;DHT22;10205;49.678;6.560;2024-02-23T10:47:50;10.40;74.40
20091;DHT22;10205;49.678;6.560;2024-02-23T10:50:18;10.40;74.20
20091;DHT22;10205;49.678;6.560;2024-02-23T10:52:46;10.40;74.20
20091;DHT22;10205;49.678;6.560;2024-02-23T10:55:14;10.40;74.20
20091;DHT22;10205;49.678;6.560;2024-02-23T10:57:42;10.40;74.90
20091;DHT22;10205;49.678;6.560;2024-02-23T11:00:11;10.40;74.10
20091;DHT22;10205;49.678;6.560;2024-02-23T11:02:41;10.40;74.00
20091;DHT22;10205;49.678;6.560;2024-02-23T11:05:14;10.50;74.10
20091;DHT22;10205;49.678;6.560;2024-02-23T11:07:42;10.50;74.00
20091;DHT22;10205;49.678;6.560;2024-02-23T11:10:13;10.50;74.00
20091;DHT22;10205;49.678;6.560;2024-02-23T11:12:40;10.50;73.90
20091;DHT22;10205;49.678;6.560;2024-02-23T11:15:08;10.60;74.10
20091;DHT22;10205;49.678;6.560;2024-02-23T11:17:36;10.60;74.00
20091;DHT22;10205;49.678;6.560;2024-02-23T11:20:05;10.60;74.10
20091;DHT22;10205;49.678;6.560;2024-02-23T11:22:35;10.60;74.20
20091;DHT22;10205;49.678;6.560;2024-02-23T11:25:04;10.60;74.10
20091;DHT22;10205;49.678;6.560;2024-02-23T11:27:33;10.60;74.00
20091;DHT22;10205;49.678;6.560;2024-02-23T11:30:03;10.70;74.00
20091;DHT22;10205;49.678;6.560;2024-02-23T11:32:38;10.70;73.90
20091;DHT22;10205;49.678;6.560;2024-02-23T11:35:06;10.70;73.40
20091;DHT22;10205;49.678;6.560;2024-02-23T11:37:46;10.80;73.80
20091;DHT22;10205;49.678;6.560;2024-02-23T11:40:14;10.80;73.10
20091;DHT22;10205;49.678;6.560;2024-02-23T11:42:42;10.90;73.80
20091;DHT22;10205;49.678;6.560;2024-02-23T11:45:10;10.90;73.60
20091;DHT22;10205;49.678;6.560;2024-02-23T11:47:37;10.90;73.40
20091;DHT22;10205;49.678;6.560;2024-02-23T11:50:06;11.00;73.30
20091;DHT22;10205;49.678;6.560;2024-02-23T11:52:35;10.90;73.20
20091;DHT22;10205;49.678;6.560;2024-02-23T11:55:05;11.00;72.90
20091;DHT22;10205;49.678;6.560;2024-02-23T11:57:34;11.00;72.80
20091;DHT22;10205;49.678;6.560;2024-02-23T12:00:01;11.00;72.90
20091;DHT22;10205;49.678;6.560;2024-02-23T12:02:29;11.10;73.90
20091;DHT22;10205;49.678;6.560;2024-02-23T12:04:57;11.10;72.90
20091;DHT22;10205;49.678;6.560;2024-02-23T12:07:24;11.10;72.90
20091;DHT22;10205;49.678;6.560;2024-02-23T12:09:54;11.10;72.80
20091;DHT22;10205;49.678;6.560;2024-02-23T12:12:26;11.20;72.90
20091;DHT22;10205;49.678;6.560;2024-02-23T12:14:53;11.20;72.60
20091;DHT22;10205;49.678;6.560;2024-02-23T12:17:21;11.20;72.70
20091;DHT22;10205;49.678;6.560;2024-02-23T12:19:48;11.20;72.70
20091;DHT22;10205;49.678;6.560;2024-02-23T12:22:15;11.20;72.80
20091;DHT22;10205;49.678;6.560;2024-02-23T12:24:45;11.20;72.60
20091;DHT22;10205;49.678;6.560;2024-02-23T12:27:16;11.20;72.60
20091;DHT22;10205;49.678;6.560;2024-02-23T12:29:52;11.30;72.50
20091;DHT22;10205;49.678;6.560;2024-02-23T12:32:20;11.30;72.10
20091;DHT22;10205;49.678;6.560;2024-02-23T12:34:48;11.30;72.50
20091;DHT22;10205;49.678;6.560;2024-02-23T12:37:17;11.30;72.50
20091;DHT22;10205;49.678;6.560;2024-02-23T12:39:45;11.40;72.50
20091;DHT22;10205;49.678;6.560;2024-02-23T12:42:12;11.40;72.50
20091;DHT22;10205;49.678;6.560;2024-02-23T12:44:39;11.40;72.50
20091;DHT22;10205;49.678;6.560;2024-02-23T12:47:07;11.50;72.70
20091;DHT22;10205;49.678;6.560;2024-02-23T12:49:35;11.50;72.30
20091;DHT22;10205;49.678;6.560;2024-02-23T12:52:02;11.50;72.30
20091;DHT22;10205;49.678;6.560;2024-02-23T12:54:29;11.60;72.40
20091;DHT22;10205;49.678;6.560;2024-02-23T12:56:56;11.60;72.30
20091;DHT22;10205;49.678;6.560;2024-02-23T12:59:23;11.70;72.40
20091;DHT22;10205;49.678;6.560;2024-02-23T13:01:50;11.70;72.30
20091;DHT22;10205;49.678;6.560;2024-02-23T13:04:19;11.70;72.30
20091;DHT22;10205;49.678;6.560;2024-02-23T13:06:46;11.70;72.00
20091;DHT22;10205;49.678;6.560;2024-02-23T13:09:16;11.80;72.00
20091;DHT22;10205;49.678;6.560;2024-02-23T13:11:43;11.80;72.10
20091;DHT22;10205;49.678;6.560;2024-02-23T13:14:11;11.80;72.20
20091;DHT22;10205;49.678;6.560;2024-02-23T13:16:38;11.80;72.00
20091;DHT22;10205;49.678;6.560;2024-02-23T13:19:06;11.90;72.00
20091;DHT22;10205;49.678;6.560;2024-02-23T13:21:37;11.90;71.80
20091;DHT22;10205;49.678;6.560;2024-02-23T13:24:04;12.00;71.50
20091;DHT22;10205;49.678;6.560;2024-02-23T13:26:32;12.00;71.60
20091;DHT22;10205;49.678;6.560;2024-02-23T13:28:59;12.00;71.40
20091;DHT22;10205;49.678;6.560;2024-02-23T13:31:26;12.00;71.30
20091;DHT22;10205;49.678;6.560;2024-02-23T13:33:53;12.10;71.40
20091;DHT22;10205;49.678;6.560;2024-02-23T13:36:20;12.10;71.40
20091;DHT22;10205;49.678;6.560;2024-02-23T13:38:49;12.10;71.40
20091;DHT22;10205;49.678;6.560;2024-02-23T13:41:16;12.10;71.30
20091;DHT22;10205;49.678;6.560;2024-02-23T13:43:44;12.20;71.30
20091;DHT22;10205;49.678;6.560;2024-02-23T13:46:11;12.20;71.30
20091;DHT22;10205;49.678;6.560;2024-02-23T13:48:38;12.20;71.10
20091;DHT22;10205;49.678;6.560;2024-02-23T13:51:05;12.20;70.90
20091;DHT22;10205;49.678;6.560;2024-02-23T13:53:32;12.20;71.10
20091;DHT22;10205;49.678;6.560;2024-02-23T13:56:03;12.20;71.10
20091;DHT22;10205;49.678;6.560;2024-02-23T13:58:30;12.20;71.00
20091;DHT22;10205;49.678;6.560;2024-02-23T14:00:58;12.20;71.00
20091;DHT22;10205;49.678;6.560;2024-02-23T14:03:25;12.20;71.00
20091;DHT22;10205;49.678;6.560;2024-02-23T14:05:52;12.20;71.00
20091;DHT22;10205;49.678;6.560;2024-02-23T14:08:19;12.20;71.00
20091;DHT22;10205;49.678;6.560;2024-02-23T14:10:46;12.20;70.70
20091;DHT22;10205;49.678;6.560;2024-02-23T14:13:15;12.30;70.60
20091;DHT22;10205;49.678;6.560;2024-02-23T14:15:42;12.30;70.50
20091;DHT22;10205;49.678;6.560;2024-02-23T14:18:10;12.30;70.40
20091;DHT22;10205;49.678;6.560;2024-02-23T14:20:37;12.30;70.20
20091;DHT22;10205;49.678;6.560;2024-02-23T14:23:04;12.30;70.00
20091;DHT22;10205;49.678;6.560;2024-02-23T14:25:31;12.30;70.00
20091;DHT22;10205;49.678;6.560;2024-02-23T14:27:58;12.30;69.90
20091;DHT22;10205;49.678;6.560;2024-02-23T14:30:26;12.30;69.90
20091;DHT22;10205;49.678;6.560;2024-02-23T14:32:54;12.30;69.60
20091;DHT22;10205;49.678;6.560;2024-02-23T14:35:21;12.30;69.70
20091;DHT22;10205;49.678;6.560;2024-02-23T14:37:48;12.30;69.70
20091;DHT22;10205;49.678;6.560;2024-02-23T14:40:15;12.30;69.60
20091;DHT22;10205;49.678;6.560;2024-02-23T14:42:42;12.30;69.60
20091;DHT22;10205;49.678;6.560;2024-02-23T14:45:09;12.30;69.50
20091;DHT22;10205;49.678;6.560;2024-02-23T14:47:39;12.30;69.60
20091;DHT22;10205;49.678;6.560;2024-02-23T14:50:09;12.30;70.10
20091;DHT22;10205;49.678;6.560;2024-02-23T14:52:36;12.40;69.50
20091;DHT22;10205;49.678;6.560;2024-02-23T14:55:06;12.30;69.60
20091;DHT22;10205;49.678;6.560;2024-02-23T14:57:36;12.40;69.40
20091;DHT22;10205;49.678;6.560;2024-02-23T15:00:04;12.40;69.40
20091;DHT22;10205;49.678;6.560;2024-02-23T15:02:32;12.40;69.50
20091;DHT22;10205;49.678;6.560;2024-02-23T15:05:01;12.40;69.40
20091;DHT22;10205;49.678;6.560;2024-02-23T15:07:28;12.40;69.30
20091;DHT22;10205;49.678;6.560;2024-02-23T15:09:55;12.40;69.30
20091;DHT22;10205;49.678;6.560;2024-02-23T15:12:22;12.40;69.00
20091;DHT22;10205;49.678;6.560;2024-02-23T15:14:53;12.40;68.80
20091;DHT22;10205;49.678;6.560;2024-02-23T15:17:20;12.40;68.80
20091;DHT22;10205;49.678;6.560;2024-02-23T15:19:47;12.40;68.60
20091;DHT22;10205;49.678;6.560;2024-02-23T15:22:16;12.40;68.60
20091;DHT22;10205;49.678;6.560;2024-02-23T15:24:44;12.40;68.60
20091;DHT22;10205;49.678;6.560;2024-02-23T15:27:15;12.40;68.80
20091;DHT22;10205;49.678;6.560;2024-02-23T15:29:42;12.40;68.60
20091;DHT22;10205;49.678;6.560;2024-02-23T15:32:10;12.40;68.50
20091;DHT22;10205;49.678;6.560;2024-02-23T15:34:37;12.40;68.40
20091;DHT22;10205;49.678;6.560;2024-02-23T15:37:04;12.40;68.50
20091;DHT22;10205;49.678;6.560;2024-02-23T15:39:33;12.40;68.40